sensor_id;sensor_type;location;lat;lon;timestamp;P1;durP1;ratioP1;P2;durP2;ratioP2
30010;SDS011;16851;53.564;8.112;2022-10-16T00:03:38;12.00;;;3.13;;
30010;SDS011;16851;53.564;8.112;2022-10-16T00:08:41;7.85;;;2.60;;
30010;SDS011;16851;53.564;8.112;2022-10-16T00:13:48;10.07;;;2.70;;
30010;SDS011;16851;53.564;8.112;2022-10-16T00:18:56;7.57;;;2.70;;
30010;SDS011;16851;53.564;8.112;2022-10-16T00:24:00;10.02;;;2.42;;
30010;SDS011;16851;53.564;8.112;2022-10-16T00:29:09;6.68;;;2.30;;
30010;SDS011;16851;53.564;8.112;2022-10-16T00:34:18;9.98;;;2.58;;
30010;SDS011;16851;53.564;8.112;2022-10-16T00:39:22;6.45;;;2.05;;
30010;SDS011;16851;53.564;8.112;2022-10-16T00:44:49;8.75;;;2.60;;
30010;SDS011;16851;53.564;8.112;2022-10-16T00:50:15;8.23;;;2.13;;
30010;SDS011;16851;53.564;8.112;2022-10-16T00:55:31;13.07;;;2.65;;
30010;SDS011;16851;53.564;8.112;2022-10-16T01:00:46;10.75;;;2.35;;
30010;SDS011;16851;53.564;8.112;2022-10-16T01:06:16;6.60;;;2.30;;
30010;SDS011;16851;53.564;8.112;2022-10-16T01:16:53;8.85;;;2.45;;
30010;SDS011;16851;53.564;8.112;2022-10-16T01:21:56;7.68;;;1.85;;
30010;SDS011;16851;53.564;8.112;2022-10-16T01:32:21;4.88;;;2.10;;
30010;SDS011;16851;53.564;8.112;2022-10-16T01:37:35;6.63;;;2.33;;
30010;SDS011;16851;53.564;8.112;2022-10-16T01:42:47;10.88;;;2.60;;
30010;SDS011;16851;53.564;8.112;2022-10-16T01:47:54;10.50;;;2.53;;
30010;SDS011;16851;53.564;8.112;2022-10-16T01:52:56;13.23;;;2.65;;
30010;SDS011;16851;53.564;8.112;2022-10-16T01:57:59;11.65;;;2.80;;
30010;SDS011;16851;53.564;8.112;2022-10-16T02:03:04;12.23;;;2.60;;
30010;SDS011;16851;53.564;8.112;2022-10-16T02:08:09;6.13;;;2.35;;
30010;SDS011;16851;53.564;8.112;2022-10-16T02:18:22;10.32;;;2.30;;
30010;SDS011;16851;53.564;8.112;2022-10-16T02:23:29;9.85;;;2.67;;
30010;SDS011;16851;53.564;8.112;2022-10-16T02:28:40;7.65;;;2.53;;
30010;SDS011;16851;53.564;8.112;2022-10-16T02:33:51;7.88;;;2.75;;
30010;SDS011;16851;53.564;8.112;2022-10-16T02:38:56;6.85;;;2.58;;
30010;SDS011;16851;53.564;8.112;2022-10-16T02:43:59;10.30;;;2.58;;
30010;SDS011;16851;53.564;8.112;2022-10-16T02:49:03;11.85;;;2.95;;
30010;SDS011;16851;53.564;8.112;2022-10-16T02:54:08;8.25;;;2.50;;
30010;SDS011;16851;53.564;8.112;2022-10-16T02:59:12;8.02;;;2.45;;
30010;SDS011;16851;53.564;8.112;2022-10-16T03:04:15;7.05;;;2.63;;
30010;SDS011;16851;53.564;8.112;2022-10-16T03:09:22;10.38;;;2.33;;
30010;SDS011;16851;53.564;8.112;2022-10-16T03:14:23;10.15;;;2.40;;
30010;SDS011;16851;53.564;8.112;2022-10-16T03:19:31;6.15;;;2.10;;
30010;SDS011;16851;53.564;8.112;2022-10-16T03:24:38;7.70;;;2.10;;
30010;SDS011;16851;53.564;8.112;2022-10-16T03:29:42;9.57;;;2.33;;
30010;SDS011;16851;53.564;8.112;2022-10-16T03:34:44;5.88;;;2.28;;
30010;SDS011;16851;53.564;8.112;2022-10-16T03:39:48;6.47;;;2.22;;
30010;SDS011;16851;53.564;8.112;2022-10-16T03:44:50;4.88;;;2.30;;
30010;SDS011;16851;53.564;8.112;2022-10-16T03:49:51;6.45;;;2.53;;
30010;SDS011;16851;53.564;8.112;2022-10-16T03:54:58;5.90;;;2.40;;
30010;SDS011;16851;53.564;8.112;2022-10-16T04:00:04;8.25;;;2.30;;
30010;SDS011;16851;53.564;8.112;2022-10-16T04:05:14;6.95;;;2.05;;
30010;SDS011;16851;53.564;8.112;2022-10-16T04:10:19;9.40;;;2.60;;
30010;SDS011;16851;53.564;8.112;2022-10-16T04:15:32;5.78;;;1.70;;
30010;SDS011;16851;53.564;8.112;2022-10-16T04:20:40;5.60;;;1.80;;
30010;SDS011;16851;53.564;8.112;2022-10-16T04:25:44;9.10;;;2.47;;
30010;SDS011;16851;53.564;8.112;2022-10-16T04:30:56;4.22;;;1.73;;
30010;SDS011;16851;53.564;8.112;2022-10-16T04:35:58;8.50;;;2.15;;
30010;SDS011;16851;53.564;8.112;2022-10-16T04:41:02;6.05;;;2.00;;
30010;SDS011;16851;53.564;8.112;2022-10-16T04:46:08;4.97;;;1.50;;
30010;SDS011;16851;53.564;8.112;2022-10-16T04:51:14;8.43;;;1.90;;
30010;SDS011;16851;53.564;8.112;2022-10-16T04:56:16;6.32;;;1.92;;
30010;SDS011;16851;53.564;8.112;2022-10-16T05:01:21;3.28;;;1.45;;
30010;SDS011;16851;53.564;8.112;2022-10-16T05:06:25;4.80;;;1.60;;
30010;SDS011;16851;53.564;8.112;2022-10-16T05:11:30;4.68;;;1.73;;
30010;SDS011;16851;53.564;8.112;2022-10-16T05:16:35;3.72;;;1.67;;
30010;SDS011;16851;53.564;8.112;2022-10-16T05:21:37;4.38;;;1.75;;
30010;SDS011;16851;53.564;8.112;2022-10-16T05:26:39;6.45;;;2.17;;
30010;SDS011;16851;53.564;8.112;2022-10-16T05:31:51;6.28;;;1.88;;
30010;SDS011;16851;53.564;8.112;2022-10-16T05:36:59;3.85;;;1.48;;
30010;SDS011;16851;53.564;8.112;2022-10-16T05:42:03;3.42;;;1.80;;
30010;SDS011;16851;53.564;8.112;2022-10-16T05:47:06;11.50;;;2.10;;
30010;SDS011;16851;53.564;8.112;2022-10-16T05:52:10;4.78;;;1.85;;
30010;SDS011;16851;53.564;8.112;2022-10-16T05:57:15;5.85;;;1.73;;
30010;SDS011;16851;53.564;8.112;2022-10-16T06:02:16;4.38;;;1.73;;
30010;SDS011;16851;53.564;8.112;2022-10-16T06:07:21;5.72;;;1.75;;
30010;SDS011;16851;53.564;8.112;2022-10-16T06:12:23;4.13;;;1.65;;
30010;SDS011;16851;53.564;8.112;2022-10-16T06:17:25;3.90;;;1.60;;
30010;SDS011;16851;53.564;8.112;2022-10-16T06:22:29;8.23;;;2.00;;
30010;SDS011;16851;53.564;8.112;2022-10-16T06:27:34;5.82;;;1.73;;
30010;SDS011;16851;53.564;8.112;2022-10-16T06:32:42;5.78;;;1.85;;
30010;SDS011;16851;53.564;8.112;2022-10-16T06:37:47;5.40;;;2.58;;
30010;SDS011;16851;53.564;8.112;2022-10-16T06:42:55;3.38;;;1.98;;
30010;SDS011;16851;53.564;8.112;2022-10-16T06:47:57;7.93;;;2.60;;
30010;SDS011;16851;53.564;8.112;2022-10-16T06:53:01;5.95;;;2.50;;
30010;SDS011;16851;53.564;8.112;2022-10-16T06:58:07;6.57;;;2.70;;
30010;SDS011;16851;53.564;8.112;2022-10-16T07:03:11;8.68;;;2.50;;
30010;SDS011;16851;53.564;8.112;2022-10-16T07:08:16;4.70;;;2.35;;
30010;SDS011;16851;53.564;8.112;2022-10-16T07:13:20;6.07;;;2.75;;
30010;SDS011;16851;53.564;8.112;2022-10-16T07:18:22;6.05;;;2.78;;
30010;SDS011;16851;53.564;8.112;2022-10-16T07:23:31;6.93;;;2.92;;
30010;SDS011;16851;53.564;8.112;2022-10-16T07:28:34;8.98;;;3.40;;
30010;SDS011;16851;53.564;8.112;2022-10-16T07:33:39;8.85;;;3.50;;
30010;SDS011;16851;53.564;8.112;2022-10-16T07:38:43;7.80;;;3.70;;
30010;SDS011;16851;53.564;8.112;2022-10-16T07:43:51;10.57;;;3.20;;
30010;SDS011;16851;53.564;8.112;2022-10-16T07:48:53;8.02;;;3.40;;
30010;SDS011;16851;53.564;8.112;2022-10-16T07:54:00;7.60;;;3.40;;
30010;SDS011;16851;53.564;8.112;2022-10-16T07:59:03;6.25;;;2.85;;
30010;SDS011;16851;53.564;8.112;2022-10-16T08:04:09;5.20;;;2.95;;
30010;SDS011;16851;53.564;8.112;2022-10-16T08:09:11;5.75;;;3.15;;
30010;SDS011;16851;53.564;8.112;2022-10-16T08:14:13;7.00;;;3.00;;
30010;SDS011;16851;53.564;8.112;2022-10-16T08:19:14;8.60;;;3.72;;
30010;SDS011;16851;53.564;8.112;2022-10-16T08:24:19;6.63;;;2.55;;
30010;SDS011;16851;53.564;8.112;2022-10-16T08:29:23;6.68;;;2.35;;
30010;SDS011;16851;53.564;8.112;2022-10-16T08:34:28;6.70;;;2.33;;
30010;SDS011;16851;53.564;8.112;2022-10-16T08:39:30;9.35;;;2.65;;
30010;SDS011;16851;53.564;8.112;2022-10-16T08:50:02;6.97;;;2.33;;
30010;SDS011;16851;53.564;8.112;2022-10-16T08:55:22;7.72;;;2.30;;
30010;SDS011;16851;53.564;8.112;2022-10-16T09:00:52;7.65;;;2.03;;
30010;SDS011;16851;53.564;8.112;2022-10-16T09:11:14;7.13;;;2.20;;
30010;SDS011;16851;53.564;8.112;2022-10-16T09:16:32;8.45;;;1.55;;
30010;SDS011;16851;53.564;8.112;2022-10-16T09:21:40;4.43;;;1.38;;
30010;SDS011;16851;53.564;8.112;2022-10-16T09:26:54;4.75;;;1.50;;
30010;SDS011;16851;53.564;8.112;2022-10-16T09:32:06;6.88;;;1.58;;
30010;SDS011;16851;53.564;8.112;2022-10-16T09:37:12;5.93;;;1.70;;
30010;SDS011;16851;53.564;8.112;2022-10-16T09:42:27;4.47;;;1.40;;
30010;SDS011;16851;53.564;8.112;2022-10-16T09:47:39;3.78;;;1.30;;
30010;SDS011;16851;53.564;8.112;2022-10-16T09:52:42;3.53;;;1.52;;
30010;SDS011;16851;53.564;8.112;2022-10-16T09:57:54;4.60;;;1.50;;
30010;SDS011;16851;53.564;8.112;2022-10-16T10:02:59;10.73;;;2.00;;
30010;SDS011;16851;53.564;8.112;2022-10-16T10:08:02;7.18;;;2.20;;
30010;SDS011;16851;53.564;8.112;2022-10-16T10:13:20;5.85;;;1.23;;
30010;SDS011;16851;53.564;8.112;2022-10-16T10:18:23;9.05;;;1.98;;
30010;SDS011;16851;53.564;8.112;2022-10-16T10:23:26;16.67;;;1.75;;
30010;SDS011;16851;53.564;8.112;2022-10-16T10:49:19;9.15;;;1.65;;
30010;SDS011;16851;53.564;8.112;2022-10-16T10:54:31;10.25;;;1.92;;
30010;SDS011;16851;53.564;8.112;2022-10-16T11:09:47;8.30;;;1.58;;
30010;SDS011;16851;53.564;8.112;2022-10-16T11:20:32;10.77;;;2.03;;
30010;SDS011;16851;53.564;8.112;2022-10-16T11:25:28;11.27;;;2.03;;
30010;SDS011;16851;53.564;8.112;2022-10-16T11:30:57;8.48;;;2.10;;
30010;SDS011;16851;53.564;8.112;2022-10-16T11:36:08;9.32;;;1.92;;
30010;SDS011;16851;53.564;8.112;2022-10-16T11:47:48;12.18;;;1.90;;
30010;SDS011;16851;53.564;8.112;2022-10-16T11:52:44;10.35;;;1.77;;
30010;SDS011;16851;53.564;8.112;2022-10-16T11:57:51;7.80;;;1.40;;
30010;SDS011;16851;53.564;8.112;2022-10-16T12:08:01;9.52;;;1.85;;
30010;SDS011;16851;53.564;8.112;2022-10-16T12:18:33;10.25;;;2.20;;
30010;SDS011;16851;53.564;8.112;2022-10-16T12:23:45;12.93;;;1.88;;
30010;SDS011;16851;53.564;8.112;2022-10-16T12:28:52;10.02;;;1.67;;
30010;SDS011;16851;53.564;8.112;2022-10-16T12:34:03;7.20;;;1.73;;
30010;SDS011;16851;53.564;8.112;2022-10-16T12:39:16;7.03;;;1.85;;
30010;SDS011;16851;53.564;8.112;2022-10-16T12:44:25;8.13;;;1.70;;
30010;SDS011;16851;53.564;8.112;2022-10-16T12:49:31;12.05;;;2.00;;
30010;SDS011;16851;53.564;8.112;2022-10-16T12:54:38;9.77;;;1.70;;
30010;SDS011;16851;53.564;8.112;2022-10-16T13:05:02;8.00;;;1.30;;
30010;SDS011;16851;53.564;8.112;2022-10-16T13:16:49;10.40;;;1.83;;
30010;SDS011;16851;53.564;8.112;2022-10-16T13:26:39;9.55;;;1.90;;
30010;SDS011;16851;53.564;8.112;2022-10-16T13:31:49;9.25;;;1.52;;
30010;SDS011;16851;53.564;8.112;2022-10-16T13:36:51;9.98;;;2.15;;
30010;SDS011;16851;53.564;8.112;2022-10-16T13:42:13;12.25;;;2.28;;
30010;SDS011;16851;53.564;8.112;2022-10-16T13:47:22;10.07;;;2.15;;
30010;SDS011;16851;53.564;8.112;2022-10-16T13:52:25;9.07;;;1.90;;
30010;SDS011;16851;53.564;8.112;2022-10-16T13:57:29;7.30;;;1.52;;
30010;SDS011;16851;53.564;8.112;2022-10-16T14:02:36;12.75;;;2.60;;
30010;SDS011;16851;53.564;8.112;2022-10-16T14:07:41;9.75;;;1.90;;
30010;SDS011;16851;53.564;8.112;2022-10-16T14:12:53;12.00;;;2.25;;
30010;SDS011;16851;53.564;8.112;2022-10-16T14:17:58;11.85;;;2.40;;
30010;SDS011;16851;53.564;8.112;2022-10-16T14:23:04;11.13;;;1.83;;
30010;SDS011;16851;53.564;8.112;2022-10-16T14:28:23;11.65;;;2.35;;
30010;SDS011;16851;53.564;8.112;2022-10-16T14:33:35;10.55;;;2.03;;
30010;SDS011;16851;53.564;8.112;2022-10-16T14:38:38;8.30;;;1.80;;
30010;SDS011;16851;53.564;8.112;2022-10-16T14:43:49;8.57;;;1.45;;
30010;SDS011;16851;53.564;8.112;2022-10-16T14:49:02;14.43;;;2.08;;
30010;SDS011;16851;53.564;8.112;2022-10-16T14:54:12;10.27;;;2.20;;
30010;SDS011;16851;53.564;8.112;2022-10-16T14:59:25;10.13;;;2.22;;
30010;SDS011;16851;53.564;8.112;2022-10-16T15:04:31;13.02;;;2.33;;
30010;SDS011;16851;53.564;8.112;2022-10-16T15:09:33;12.73;;;2.10;;
30010;SDS011;16851;53.564;8.112;2022-10-16T15:14:37;14.07;;;2.30;;
30010;SDS011;16851;53.564;8.112;2022-10-16T15:19:42;11.50;;;1.92;;
30010;SDS011;16851;53.564;8.112;2022-10-16T15:24:46;13.68;;;2.25;;
30010;SDS011;16851;53.564;8.112;2022-10-16T15:29:48;17.85;;;1.98;;
30010;SDS011;16851;53.564;8.112;2022-10-16T15:34:56;12.90;;;2.45;;
30010;SDS011;16851;53.564;8.112;2022-10-16T15:39:59;13.18;;;2.15;;
30010;SDS011;16851;53.564;8.112;2022-10-16T15:45:03;10.00;;;1.98;;
30010;SDS011;16851;53.564;8.112;2022-10-16T15:50:10;10.00;;;2.08;;
30010;SDS011;16851;53.564;8.112;2022-10-16T15:55:20;8.68;;;1.83;;
30010;SDS011;16851;53.564;8.112;2022-10-16T16:00:28;12.75;;;2.40;;
30010;SDS011;16851;53.564;8.112;2022-10-16T16:05:32;10.20;;;1.95;;
30010;SDS011;16851;53.564;8.112;2022-10-16T16:10:37;10.25;;;1.73;;
30010;SDS011;16851;53.564;8.112;2022-10-16T16:15:41;15.50;;;2.20;;
30010;SDS011;16851;53.564;8.112;2022-10-16T16:20:45;11.88;;;2.17;;
30010;SDS011;16851;53.564;8.112;2022-10-16T16:31:12;10.10;;;2.03;;
30010;SDS011;16851;53.564;8.112;2022-10-16T16:36:18;8.60;;;2.35;;
30010;SDS011;16851;53.564;8.112;2022-10-16T16:41:21;12.65;;;2.35;;
30010;SDS011;16851;53.564;8.112;2022-10-16T16:46:24;13.90;;;2.65;;
30010;SDS011;16851;53.564;8.112;2022-10-16T16:51:26;12.98;;;3.13;;
30010;SDS011;16851;53.564;8.112;2022-10-16T16:56:28;15.23;;;3.17;;
30010;SDS011;16851;53.564;8.112;2022-10-16T17:01:30;10.05;;;3.60;;
30010;SDS011;16851;53.564;8.112;2022-10-16T17:06:33;9.70;;;4.15;;
30010;SDS011;16851;53.564;8.112;2022-10-16T17:11:34;11.73;;;4.22;;
30010;SDS011;16851;53.564;8.112;2022-10-16T17:16:41;16.48;;;4.57;;
30010;SDS011;16851;53.564;8.112;2022-10-16T17:21:49;19.85;;;5.53;;
30010;SDS011;16851;53.564;8.112;2022-10-16T17:27:02;15.40;;;4.43;;
30010;SDS011;16851;53.564;8.112;2022-10-16T17:32:07;11.02;;;4.18;;
30010;SDS011;16851;53.564;8.112;2022-10-16T17:37:10;12.27;;;3.92;;
30010;SDS011;16851;53.564;8.112;2022-10-16T17:42:18;12.80;;;4.75;;
30010;SDS011;16851;53.564;8.112;2022-10-16T17:47:22;15.45;;;6.03;;
30010;SDS011;16851;53.564;8.112;2022-10-16T17:52:24;14.65;;;5.50;;
30010;SDS011;16851;53.564;8.112;2022-10-16T17:57:29;12.95;;;5.22;;
30010;SDS011;16851;53.564;8.112;2022-10-16T18:02:31;9.80;;;4.25;;
30010;SDS011;16851;53.564;8.112;2022-10-16T18:07:35;11.95;;;5.22;;
30010;SDS011;16851;53.564;8.112;2022-10-16T18:12:40;10.07;;;5.90;;
30010;SDS011;16851;53.564;8.112;2022-10-16T18:17:42;16.23;;;5.75;;
30010;SDS011;16851;53.564;8.112;2022-10-16T18:22:49;11.98;;;4.35;;
30010;SDS011;16851;53.564;8.112;2022-10-16T18:27:57;8.77;;;3.53;;
30010;SDS011;16851;53.564;8.112;2022-10-16T18:33:05;9.23;;;4.20;;
30010;SDS011;16851;53.564;8.112;2022-10-16T18:38:08;9.93;;;3.30;;
30010;SDS011;16851;53.564;8.112;2022-10-16T18:43:12;10.45;;;4.10;;
30010;SDS011;16851;53.564;8.112;2022-10-16T18:48:17;9.25;;;4.05;;
30010;SDS011;16851;53.564;8.112;2022-10-16T18:53:21;10.77;;;3.40;;
30010;SDS011;16851;53.564;8.112;2022-10-16T18:58:28;7.63;;;3.22;;
30010;SDS011;16851;53.564;8.112;2022-10-16T19:03:34;13.10;;;4.20;;
30010;SDS011;16851;53.564;8.112;2022-10-16T19:08:39;11.55;;;5.20;;
30010;SDS011;16851;53.564;8.112;2022-10-16T19:13:42;12.60;;;5.90;;
30010;SDS011;16851;53.564;8.112;2022-10-16T19:18:48;11.43;;;5.55;;
30010;SDS011;16851;53.564;8.112;2022-10-16T19:23:57;8.75;;;4.78;;
30010;SDS011;16851;53.564;8.112;2022-10-16T19:29:03;12.55;;;4.55;;
30010;SDS011;16851;53.564;8.112;2022-10-16T19:34:06;11.52;;;4.65;;
30010;SDS011;16851;53.564;8.112;2022-10-16T19:39:11;13.90;;;5.47;;
30010;SDS011;16851;53.564;8.112;2022-10-16T19:44:15;14.88;;;5.95;;
30010;SDS011;16851;53.564;8.112;2022-10-16T19:49:20;16.58;;;7.10;;
30010;SDS011;16851;53.564;8.112;2022-10-16T19:54:24;13.75;;;5.07;;
30010;SDS011;16851;53.564;8.112;2022-10-16T19:59:29;11.18;;;3.90;;
30010;SDS011;16851;53.564;8.112;2022-10-16T20:04:36;9.55;;;4.50;;
30010;SDS011;16851;53.564;8.112;2022-10-16T20:09:41;11.07;;;4.53;;
30010;SDS011;16851;53.564;8.112;2022-10-16T20:14:44;9.77;;;3.88;;
30010;SDS011;16851;53.564;8.112;2022-10-16T20:19:47;14.18;;;4.85;;
30010;SDS011;16851;53.564;8.112;2022-10-16T20:24:51;13.60;;;6.03;;
30010;SDS011;16851;53.564;8.112;2022-10-16T20:29:58;11.77;;;5.65;;
30010;SDS011;16851;53.564;8.112;2022-10-16T20:35:01;11.68;;;4.70;;
30010;SDS011;16851;53.564;8.112;2022-10-16T20:40:08;12.43;;;4.35;;
30010;SDS011;16851;53.564;8.112;2022-10-16T20:45:13;17.30;;;5.78;;
30010;SDS011;16851;53.564;8.112;2022-10-16T20:50:18;20.15;;;5.90;;
30010;SDS011;16851;53.564;8.112;2022-10-16T20:55:25;13.93;;;4.40;;
30010;SDS011;16851;53.564;8.112;2022-10-16T21:00:29;15.63;;;4.63;;
30010;SDS011;16851;53.564;8.112;2022-10-16T21:05:41;13.23;;;4.43;;
30010;SDS011;16851;53.564;8.112;2022-10-16T21:10:46;10.55;;;4.43;;
30010;SDS011;16851;53.564;8.112;2022-10-16T21:15:48;20.05;;;7.00;;
30010;SDS011;16851;53.564;8.112;2022-10-16T21:20:50;18.38;;;6.95;;
30010;SDS011;16851;53.564;8.112;2022-10-16T21:25:56;14.68;;;4.80;;
30010;SDS011;16851;53.564;8.112;2022-10-16T21:30:58;17.40;;;6.00;;
30010;SDS011;16851;53.564;8.112;2022-10-16T21:36:10;16.52;;;6.63;;
30010;SDS011;16851;53.564;8.112;2022-10-16T21:41:21;16.08;;;5.93;;
30010;SDS011;16851;53.564;8.112;2022-10-16T21:46:30;13.07;;;4.90;;
30010;SDS011;16851;53.564;8.112;2022-10-16T21:51:39;11.38;;;3.38;;
30010;SDS011;16851;53.564;8.112;2022-10-16T21:56:43;12.68;;;3.55;;
30010;SDS011;16851;53.564;8.112;2022-10-16T22:01:45;10.95;;;2.90;;
30010;SDS011;16851;53.564;8.112;2022-10-16T22:06:52;12.13;;;3.65;;
30010;SDS011;16851;53.564;8.112;2022-10-16T22:11:54;12.25;;;3.17;;
30010;SDS011;16851;53.564;8.112;2022-10-16T22:16:58;8.20;;;3.30;;
30010;SDS011;16851;53.564;8.112;2022-10-16T22:22:03;13.23;;;3.38;;
30010;SDS011;16851;53.564;8.112;2022-10-16T22:27:10;11.13;;;3.15;;
30010;SDS011;16851;53.564;8.112;2022-10-16T22:32:15;16.50;;;4.22;;
30010;SDS011;16851;53.564;8.112;2022-10-16T22:37:25;6.95;;;2.88;;
30010;SDS011;16851;53.564;8.112;2022-10-16T22:42:27;15.98;;;3.60;;
30010;SDS011;16851;53.564;8.112;2022-10-16T22:47:29;9.80;;;3.15;;
30010;SDS011;16851;53.564;8.112;2022-10-16T22:52:31;13.00;;;3.75;;
30010;SDS011;16851;53.564;8.112;2022-10-16T22:57:33;15.25;;;4.03;;
30010;SDS011;16851;53.564;8.112;2022-10-16T23:02:40;14.63;;;3.88;;
30010;SDS011;16851;53.564;8.112;2022-10-16T23:07:45;11.77;;;3.83;;
30010;SDS011;16851;53.564;8.112;2022-10-16T23:12:52;11.65;;;3.72;;
30010;SDS011;16851;53.564;8.112;2022-10-16T23:17:55;15.73;;;4.13;;
30010;SDS011;16851;53.564;8.112;2022-10-16T23:22:59;14.18;;;3.90;;
30010;SDS011;16851;53.564;8.112;2022-10-16T23:28:05;13.05;;;4.00;;
30010;SDS011;16851;53.564;8.112;2022-10-16T23:33:14;8.00;;;3.72;;
30010;SDS011;16851;53.564;8.112;2022-10-16T23:38:21;16.02;;;3.88;;
30010;SDS011;16851;53.564;8.112;2022-10-16T23:43:25;15.45;;;3.90;;
30010;SDS011;16851;53.564;8.112;2022-10-16T23:48:29;10.05;;;3.92;;
30010;SDS011;16851;53.564;8.112;2022-10-16T23:53:31;16.45;;;4.70;;
30010;SDS011;16851;53.564;8.112;2022-10-16T23:58:36;18.85;;;4.72;;
